Time;durP1;ratioP1;P1;durP2;ratioP2;P2;SDS_P1;SDS_P2;PMS_P1;PMS_P2;Temp;Humidity;BMP_temperature;BMP_pressure;BME280_temperature;BME280_humidity;BME280_pressure;Samples;Min_cycle;Max_cycle;Signal;HPM_P1;HPM_P2
2022/01/28 00:00:04;;;;;;;11.40;3.23;;;6.80;99.90;;;;;;4974759;28;20445;-51
2022/01/28 00:02:45;;;;;;;13.77;3.47;;;6.80;99.90;;;;;;4974944;28;20416;-51
2022/01/28 00:05:18;;;;;;;11.57;3.00;;;6.80;99.90;;;;;;4975044;28;20484;-50
2022/01/28 00:07:44;;;;;;;12.17;3.13;;;6.80;99.90;;;;;;4974944;28;20418;-50
2022/01/28 00:10:12;;;;;;;18.90;3.40;;;6.80;99.90;;;;;;4974538;28;20450;-51
2022/01/28 00:12:54;;;;;;;16.87;4.47;;;6.80;99.90;;;;;;4974915;28;20448;-51
2022/01/28 00:15:30;;;;;;;8.67;3.20;;;6.80;99.90;;;;;;4974725;28;20404;-51
2022/01/28 00:21:10;;;;;;;10.57;2.80;;;6.80;99.90;;;;;;4955254;29;20438;-51
2022/01/28 00:37:48;;;;;;;14.77;3.57;;;6.90;99.90;;;;;;4937943;29;20465;-51
2022/01/28 00:40:13;;;;;;;14.80;3.33;;;6.90;99.90;;;;;;4954442;29;20529;-50
2022/01/28 00:42:40;;;;;;;20.03;4.23;;;6.90;99.90;;;;;;4937635;29;20974;-50
2022/01/28 00:45:07;;;;;;;11.90;3.50;;;6.90;99.90;;;;;;4964353;28;20452;-51
2022/01/28 00:47:34;;;;;;;7.50;3.37;;;6.90;99.90;;;;;;4974101;28;20460;-51
2022/01/28 00:50:01;;;;;;;18.73;3.60;;;6.90;99.90;;;;;;4973920;28;20436;-51
2022/01/28 00:52:29;;;;;;;16.03;3.40;;;6.90;99.90;;;;;;4974033;28;20806;-51
2022/01/28 00:54:55;;;;;;;9.37;2.90;;;6.90;99.90;;;;;;4973945;28;20417;-51
2022/01/28 00:57:22;;;;;;;15.77;3.27;;;6.90;99.90;;;;;;4974167;28;20479;-51
2022/01/28 00:59:48;;;;;;;7.43;3.30;;;6.90;99.90;;;;;;4973609;28;20942;-51
2022/01/28 01:02:15;;;;;;;17.67;4.33;;;6.90;99.90;;;;;;4973868;28;20418;-51
2022/01/28 01:04:42;;;;;;;9.20;2.80;;;6.90;99.90;;;;;;4973691;28;20436;-51
2022/01/28 01:07:08;;;;;;;14.83;3.40;;;6.90;99.90;;;;;;4973649;28;20479;-51
2022/01/28 01:09:37;;;;;;;13.60;3.17;;;6.90;99.90;;;;;;4973349;28;20445;-51
2022/01/28 01:12:04;;;;;;;11.43;2.77;;;6.90;99.90;;;;;;4956363;28;20457;-51
2022/01/28 01:14:32;;;;;;;18.73;3.23;;;6.90;99.90;;;;;;4973678;28;20906;-51
2022/01/28 01:17:09;;;;;;;11.03;3.40;;;6.90;99.90;;;;;;4973358;28;20982;-50
2022/01/28 01:19:40;;;;;;;14.17;3.37;;;6.90;99.90;;;;;;4973205;28;20800;-51
2022/01/28 01:22:08;;;;;;;14.83;3.60;;;6.90;99.90;;;;;;4973640;28;20416;-51
2022/01/28 01:24:47;;;;;;;8.97;2.90;;;7.00;99.90;;;;;;4973472;28;20441;-51
2022/01/28 01:27:14;;;;;;;17.87;3.70;;;6.90;99.90;;;;;;4964281;28;20453;-51
2022/01/28 01:29:43;;;;;;;17.57;4.00;;;6.90;99.90;;;;;;4953881;29;20424;-51
2022/01/28 01:32:14;;;;;;;14.40;3.13;;;6.90;99.90;;;;;;4953845;29;20450;-51
2022/01/28 01:34:41;;;;;;;14.70;4.03;;;6.90;99.90;;;;;;4954093;29;20441;-51
2022/01/28 01:37:08;;;;;;;9.93;3.03;;;6.80;99.90;;;;;;4953940;29;20431;-50
2022/01/28 01:39:37;;;;;;;14.63;3.93;;;6.80;99.90;;;;;;4953530;29;20424;-50
2022/01/28 01:42:13;;;;;;;22.23;4.20;;;6.80;99.90;;;;;;4953756;28;20411;-51
2022/01/28 01:45:12;;;;;;;15.93;3.30;;;6.80;99.90;;;;;;4959673;28;20463;-50
2022/01/28 01:53:03;;;;;;;13.23;3.50;;;6.90;99.90;;;;;;4973046;28;20991;-50
2022/01/28 01:55:30;;;;;;;14.80;4.33;;;6.80;99.90;;;;;;4973066;28;20433;-51
2022/01/28 01:57:58;;;;;;;14.07;3.47;;;6.80;99.90;;;;;;4972924;28;20437;-51
2022/01/28 02:00:25;;;;;;;9.63;3.30;;;6.80;99.90;;;;;;4972615;28;20423;-51
2022/01/28 02:02:51;;;;;;;15.50;4.00;;;6.80;99.90;;;;;;4973031;28;20474;-50
2022/01/28 02:05:18;;;;;;;14.30;3.53;;;6.80;99.90;;;;;;4972806;28;20487;-51
2022/01/28 02:07:46;;;;;;;15.70;4.30;;;6.80;99.90;;;;;;4972843;28;20474;-51
2022/01/28 02:10:12;;;;;;;11.73;3.10;;;6.80;99.90;;;;;;4972643;28;20454;-51
2022/01/28 02:12:47;;;;;;;11.67;2.97;;;6.80;99.90;;;;;;4972773;28;20436;-51
2022/01/28 02:15:15;;;;;;;9.33;3.37;;;6.70;99.90;;;;;;4972899;28;20773;-51
2022/01/28 02:17:42;;;;;;;20.30;4.30;;;6.70;99.90;;;;;;4972517;28;20457;-51
2022/01/28 02:20:12;;;;;;;12.73;3.27;;;6.70;99.90;;;;;;4972340;28;20432;-51
2022/01/28 02:22:40;;;;;;;14.40;3.23;;;6.70;99.90;;;;;;4972692;28;20411;-51
2022/01/28 02:25:07;;;;;;;19.53;4.43;;;6.70;99.90;;;;;;4972701;28;20413;-51
2022/01/28 02:27:34;;;;;;;13.67;3.30;;;6.70;99.90;;;;;;4960821;28;20467;-50
2022/01/28 02:30:00;;;;;;;12.00;3.80;;;6.70;99.90;;;;;;4953005;29;20431;-51
2022/01/28 02:32:27;;;;;;;23.70;5.57;;;6.70;99.90;;;;;;4953089;28;20982;-51
2022/01/28 02:34:54;;;;;;;12.17;3.47;;;6.70;99.90;;;;;;4953469;29;20431;-50
2022/01/28 02:37:22;;;;;;;16.97;3.90;;;6.70;99.90;;;;;;4953207;29;20540;-50
2022/01/28 02:39:50;;;;;;;11.60;3.20;;;6.70;99.90;;;;;;4953130;29;20486;-51
2022/01/28 02:42:21;;;;;;;16.80;4.13;;;6.70;99.90;;;;;;4953434;28;20473;-52
2022/01/28 02:44:50;;;;;;;13.43;4.50;;;6.70;99.90;;;;;;4960278;28;20722;-50
2022/01/28 02:47:29;;;;;;;18.00;3.70;;;6.70;99.90;;;;;;4972385;28;20458;-50
2022/01/28 02:49:56;;;;;;;17.53;5.10;;;6.70;99.90;;;;;;4972263;28;20910;-50
2022/01/28 02:52:32;;;;;;;8.07;2.97;;;6.70;99.90;;;;;;4972452;28;20448;-50
2022/01/28 02:55:02;;;;;;;14.87;3.70;;;6.70;99.90;;;;;;4976265;28;20498;-50
2022/01/28 02:57:29;;;;;;;21.93;3.90;;;6.70;99.90;;;;;;4976143;28;20902;-50
2022/01/28 02:59:55;;;;;;;17.57;4.57;;;6.70;99.90;;;;;;4975805;28;20443;-50
2022/01/28 03:02:22;;;;;;;19.47;3.40;;;6.50;99.90;;;;;;4976106;28;20439;-50
2022/01/28 03:05:28;;;;;;;13.20;3.87;;;6.60;99.90;;;;;;4977030;28;20439;-50
2022/01/28 03:07:46;;;;;;;18.70;4.00;;;6.60;99.90;;;;;;4976316;28;20533;-49
2022/01/28 03:10:31;;;;;;;14.37;3.70;;;6.60;99.90;;;;;;4975824;28;20423;-50
2022/01/28 03:13:12;;;;;;;11.13;4.30;;;6.60;99.90;;;;;;4976026;28;20436;-49
2022/01/28 03:15:41;;;;;;;11.30;3.30;;;6.60;99.90;;;;;;4975851;28;20426;-50
2022/01/28 03:18:12;;;;;;;14.83;3.27;;;6.50;99.90;;;;;;4975757;28;20465;-52
2022/01/28 03:20:41;;;;;;;11.30;3.33;;;6.50;99.90;;;;;;4976064;28;20451;-53
2022/01/28 03:23:08;;;;;;;15.20;3.77;;;6.60;99.90;;;;;;4975917;28;20535;-50
2022/01/28 03:25:42;;;;;;;14.07;4.07;;;6.50;99.90;;;;;;4975671;28;20453;-49
2022/01/28 03:28:09;;;;;;;13.87;3.60;;;6.60;99.90;;;;;;4959324;28;20481;-52
2022/01/28 03:30:36;;;;;;;14.53;4.03;;;6.60;99.90;;;;;;4956428;29;20835;-52
2022/01/28 03:33:03;;;;;;;14.37;3.77;;;6.60;99.90;;;;;;4956128;29;20431;-50
2022/01/28 03:35:30;;;;;;;19.87;3.90;;;6.50;99.90;;;;;;4956125;29;20420;-48
2022/01/28 03:38:00;;;;;;;11.00;3.30;;;6.60;99.90;;;;;;4956100;29;20467;-50
2022/01/28 03:40:28;;;;;;;15.20;3.87;;;6.60;99.90;;;;;;4955858;29;20528;-50
2022/01/28 03:42:56;;;;;;;20.00;4.60;;;6.60;99.90;;;;;;4956146;29;20483;-51
2022/01/28 03:45:22;;;;;;;14.10;3.60;;;6.50;99.90;;;;;;4967231;28;20986;-51
2022/01/28 03:47:49;;;;;;;14.67;3.00;;;6.60;99.90;;;;;;4975345;28;20788;-50
2022/01/28 03:50:15;;;;;;;13.23;3.30;;;6.60;99.90;;;;;;4975056;28;20422;-50
2022/01/28 03:52:42;;;;;;;15.73;4.13;;;6.50;99.90;;;;;;4975289;28;20895;-51
2022/01/28 03:55:09;;;;;;;25.17;5.60;;;6.60;99.90;;;;;;4975294;28;20423;-51
2022/01/28 03:57:36;;;;;;;15.77;4.70;;;6.60;99.90;;;;;;4975017;28;20432;-51
2022/01/28 04:00:05;;;;;;;15.07;3.63;;;6.50;99.90;;;;;;4974663;28;20426;-51
2022/01/28 04:02:36;;;;;;;20.53;4.50;;;6.60;99.90;;;;;;4975199;28;20442;-50
2022/01/28 04:13:15;;;;;;;13.17;3.23;;;6.50;99.90;;;;;;4974850;28;20417;-51
2022/01/28 04:18:13;;;;;;;18.87;3.73;;;6.60;99.90;;;;;;4934866;29;20430;-45
2022/01/28 04:20:40;;;;;;;18.10;3.97;;;6.60;99.90;;;;;;4936091;29;20410;-44
2022/01/28 04:23:06;;;;;;;17.83;3.60;;;6.60;99.90;;;;;;4936274;29;20420;-45
2022/01/28 04:25:33;;;;;;;12.30;3.67;;;6.60;99.90;;;;;;4936274;29;20446;-45
2022/01/28 04:27:59;;;;;;;14.03;3.77;;;6.50;99.90;;;;;;4921460;29;20463;-45
2022/01/28 04:30:26;;;;;;;22.47;3.93;;;6.60;99.90;;;;;;4916971;29;20443;-45
2022/01/28 04:32:53;;;;;;;11.00;4.00;;;6.60;99.90;;;;;;4917539;29;20446;-46
2022/01/28 04:35:21;;;;;;;13.83;3.50;;;6.60;99.90;;;;;;4917146;29;20425;-45
2022/01/28 04:37:58;;;;;;;15.30;3.47;;;6.60;99.90;;;;;;4917081;29;20449;-45
2022/01/28 04:40:28;;;;;;;19.23;3.60;;;6.50;99.90;;;;;;4916933;29;20461;-45
2022/01/28 04:43:04;;;;;;;11.37;3.07;;;6.60;99.90;;;;;;4917303;29;20425;-46
2022/01/28 04:45:39;;;;;;;12.90;3.70;;;6.50;99.90;;;;;;4930478;29;20443;-46
2022/01/28 04:48:15;;;;;;;11.40;4.20;;;6.50;99.90;;;;;;4935737;29;20457;-46
2022/01/28 04:50:54;;;;;;;20.37;4.00;;;6.50;99.90;;;;;;4918505;29;20485;-46
2022/01/28 04:53:37;;;;;;;10.40;3.73;;;6.50;99.90;;;;;;4936477;29;20816;-44
2022/01/28 04:56:16;;;;;;;21.50;4.80;;;6.50;99.90;;;;;;4936027;29;20969;-45
2022/01/28 04:58:57;;;;;;;13.50;3.87;;;6.50;99.90;;;;;;4935523;29;21014;-44
2022/01/28 05:01:47;;;;;;;18.40;4.20;;;6.60;99.90;;;;;;4935755;29;20440;-46
2022/01/28 05:04:38;;;;;;;14.00;3.53;;;6.50;99.90;;;;;;4935779;29;20927;-45
2022/01/28 05:07:35;;;;;;;9.83;3.80;;;6.60;99.90;;;;;;4935818;29;20832;-44
2022/01/28 05:10:45;;;;;;;7.63;2.73;;;6.60;99.90;;;;;;4935148;29;20437;-45
2022/01/28 05:16:26;;;;;;;10.23;3.80;;;6.50;99.90;;;;;;4935150;29;20581;-45
2022/01/28 05:27:09;;;;;;;18.13;3.63;;;6.50;99.90;;;;;;4904861;29;20477;-46
2022/01/28 05:29:39;;;;;;;16.30;3.90;;;6.60;99.90;;;;;;4916191;29;20440;-45
2022/01/28 05:32:06;;;;;;;13.60;3.17;;;6.60;99.90;;;;;;4916231;29;20600;-46
2022/01/28 05:34:33;;;;;;;18.43;3.83;;;6.60;99.90;;;;;;4916456;29;20460;-44
2022/01/28 05:37:00;;;;;;;13.00;3.90;;;6.60;99.90;;;;;;4916633;29;20558;-44
2022/01/28 05:39:28;;;;;;;16.60;3.73;;;6.60;99.90;;;;;;4915928;29;20447;-46
2022/01/28 05:41:54;;;;;;;13.23;3.37;;;6.60;99.90;;;;;;4916219;29;20417;-46
2022/01/28 05:44:22;;;;;;;18.73;3.47;;;6.60;99.90;;;;;;4919302;29;20446;-45
2022/01/28 05:46:49;;;;;;;15.10;4.20;;;6.60;99.90;;;;;;4934788;29;20582;-44
2022/01/28 05:49:16;;;;;;;14.80;3.93;;;6.60;99.90;;;;;;4934584;29;20430;-45
2022/01/28 05:51:43;;;;;;;20.47;4.07;;;6.60;99.90;;;;;;4935383;29;20454;-47
2022/01/28 05:54:09;;;;;;;14.23;3.47;;;6.60;99.90;;;;;;4935433;29;20438;-45
2022/01/28 05:56:37;;;;;;;16.37;3.20;;;6.60;99.90;;;;;;4935028;29;20455;-45
2022/01/28 05:59:04;;;;;;;14.20;3.67;;;6.60;99.90;;;;;;4934762;29;20427;-45
2022/01/28 06:01:31;;;;;;;15.10;4.57;;;6.50;99.90;;;;;;4934717;29;20412;-46
2022/01/28 06:03:57;;;;;;;13.47;3.50;;;6.60;99.90;;;;;;4934674;29;20879;-45
2022/01/28 06:06:24;;;;;;;18.43;4.10;;;6.60;99.90;;;;;;4934680;29;20483;-44
2022/01/28 06:08:52;;;;;;;15.63;3.67;;;6.60;99.90;;;;;;4934388;29;20438;-45
2022/01/28 06:11:20;;;;;;;18.97;4.60;;;6.60;99.90;;;;;;4934536;29;20446;-45
2022/01/28 06:13:48;;;;;;;14.77;3.50;;;6.60;99.90;;;;;;4934588;29;20417;-45
2022/01/28 06:16:16;;;;;;;13.60;4.20;;;6.60;99.90;;;;;;4934642;29;20477;-46
2022/01/28 06:18:43;;;;;;;10.47;3.40;;;6.50;99.90;;;;;;4933996;29;20512;-46
2022/01/28 06:21:10;;;;;;;18.00;4.70;;;6.60;99.90;;;;;;4934332;29;20456;-46
2022/01/28 06:23:37;;;;;;;12.57;3.60;;;6.40;99.90;;;;;;4934382;29;20505;-45
2022/01/28 06:26:05;;;;;;;19.20;3.87;;;6.60;99.90;;;;;;4934614;29;20446;-46
2022/01/28 06:28:32;;;;;;;17.30;4.20;;;6.60;99.90;;;;;;4917213;29;20421;-44
2022/01/28 06:31:00;;;;;;;17.57;4.20;;;6.60;99.90;;;;;;4919466;29;20449;-44
2022/01/28 06:33:26;;;;;;;16.30;3.63;;;6.60;99.90;;;;;;4919644;29;20441;-45
2022/01/28 06:35:53;;;;;;;20.27;5.20;;;6.60;99.90;;;;;;4919458;29;20450;-47
2022/01/28 06:38:20;;;;;;;26.17;6.27;;;6.60;99.90;;;;;;4919087;29;20445;-46
2022/01/28 06:40:48;;;;;;;11.03;3.53;;;6.50;99.90;;;;;;4918960;29;20425;-47
2022/01/28 06:43:16;;;;;;;13.80;4.10;;;6.60;99.90;;;;;;4919009;29;20417;-44
2022/01/28 06:45:43;;;;;;;19.10;5.10;;;6.60;99.90;;;;;;4932914;29;20431;-45
2022/01/28 06:48:11;;;;;;;17.10;3.93;;;6.60;99.90;;;;;;4937844;29;20486;-45
2022/01/28 06:50:38;;;;;;;18.33;4.27;;;6.60;99.90;;;;;;4920612;29;20440;-47
2022/01/28 06:53:07;;;;;;;18.20;4.43;;;6.60;99.90;;;;;;4937884;29;20901;-46
2022/01/28 06:55:34;;;;;;;10.10;3.70;;;6.60;99.90;;;;;;4937818;29;20445;-45
2022/01/28 06:58:01;;;;;;;19.83;4.30;;;6.60;99.90;;;;;;4937520;29;20441;-45
2022/01/28 07:00:28;;;;;;;14.77;5.73;;;6.60;99.90;;;;;;4936863;29;20916;-44
2022/01/28 07:02:54;;;;;;;16.73;4.57;;;6.60;99.90;;;;;;4937732;29;20536;-46
2022/01/28 07:05:22;;;;;;;17.53;5.00;;;6.60;99.90;;;;;;4937328;29;20537;-46
2022/01/28 07:07:49;;;;;;;19.00;4.90;;;6.60;99.90;;;;;;4938081;29;20493;-46
2022/01/28 07:10:15;;;;;;;25.13;6.03;;;6.60;99.90;;;;;;4938227;29;20414;-45
2022/01/28 07:12:42;;;;;;;18.10;4.70;;;6.60;99.90;;;;;;4938272;29;20456;-45
2022/01/28 07:15:09;;;;;;;13.97;4.23;;;6.60;99.90;;;;;;4937787;29;20452;-46
2022/01/28 07:17:36;;;;;;;21.43;4.87;;;6.50;99.90;;;;;;4937062;29;20488;-44
2022/01/28 07:20:03;;;;;;;23.77;5.07;;;6.50;99.90;;;;;;4937454;29;20441;-45
2022/01/28 07:22:31;;;;;;;16.87;5.87;;;6.50;99.90;;;;;;4937699;29;20446;-44
2022/01/28 07:24:58;;;;;;;16.50;5.00;;;6.50;99.90;;;;;;4937260;29;20789;-45
2022/01/28 07:27:24;;;;;;;15.30;4.33;;;6.40;99.90;;;;;;4926623;29;20488;-45
2022/01/28 07:29:51;;;;;;;14.47;4.20;;;6.40;99.90;;;;;;4918120;29;20468;-45
2022/01/28 07:32:18;;;;;;;22.27;4.37;;;6.40;99.90;;;;;;4918566;29;20922;-47
2022/01/28 07:34:46;;;;;;;20.60;4.00;;;6.40;99.90;;;;;;4918407;29;20445;-47
2022/01/28 07:37:13;;;;;;;14.10;3.70;;;6.10;99.90;;;;;;4917781;29;20978;-45
2022/01/28 07:39:41;;;;;;;17.20;3.87;;;6.30;99.90;;;;;;4917332;29;20417;-45
2022/01/28 07:42:08;;;;;;;18.67;5.30;;;6.20;99.90;;;;;;4918530;29;20413;-46
2022/01/28 07:44:35;;;;;;;17.47;4.57;;;6.20;99.90;;;;;;4923168;29;20445;-44
2022/01/28 07:47:01;;;;;;;18.23;3.73;;;6.20;99.90;;;;;;4936990;29;20456;-46
2022/01/28 07:49:28;;;;;;;15.33;4.30;;;6.20;99.90;;;;;;4936408;29;20438;-45
2022/01/28 07:51:55;;;;;;;25.53;5.10;;;6.10;99.90;;;;;;4937026;29;20446;-44
2022/01/28 07:54:21;;;;;;;19.20;3.83;;;6.10;99.90;;;;;;4937401;29;20433;-47
2022/01/28 07:56:53;;;;;;;20.50;4.70;;;6.10;99.90;;;;;;4937110;29;20455;-46
2022/01/28 07:59:20;;;;;;;16.93;4.43;;;6.10;99.90;;;;;;4936343;29;20447;-47
2022/01/28 08:01:47;;;;;;;16.60;5.47;;;6.10;99.90;;;;;;4919555;29;20511;-45
2022/01/28 08:04:14;;;;;;;15.33;4.60;;;6.10;99.90;;;;;;4936154;29;20528;-45
2022/01/28 08:06:41;;;;;;;13.43;4.43;;;6.10;99.90;;;;;;4936551;29;20886;-46
2022/01/28 08:09:08;;;;;;;19.20;5.93;;;6.00;99.90;;;;;;4936850;29;20438;-47
2022/01/28 08:11:35;;;;;;;17.30;4.27;;;6.00;99.90;;;;;;4936118;29;20416;-47
2022/01/28 08:14:03;;;;;;;21.20;5.73;;;6.00;99.90;;;;;;4936964;29;20416;-44
2022/01/28 08:16:30;;;;;;;29.90;6.13;;;5.80;99.90;;;;;;4935775;29;20484;-44
2022/01/28 08:18:56;;;;;;;17.00;4.40;;;5.90;99.90;;;;;;4935513;29;20436;-44
2022/01/28 08:21:23;;;;;;;31.23;5.80;;;5.70;99.90;;;;;;4936045;29;20446;-45
2022/01/28 08:23:50;;;;;;;15.27;4.30;;;5.90;99.90;;;;;;4936028;29;20845;-45
2022/01/28 08:26:18;;;;;;;22.20;6.17;;;5.90;99.90;;;;;;4934617;29;21050;-45
2022/01/28 08:28:47;;;;;;;23.90;5.43;;;5.90;99.90;;;;;;4916727;29;20988;-46
2022/01/28 08:31:15;;;;;;;21.43;4.83;;;5.90;99.90;;;;;;4917157;29;20511;-45
2022/01/28 08:33:42;;;;;;;15.10;4.77;;;6.00;99.90;;;;;;4917062;29;20423;-46
2022/01/28 08:36:09;;;;;;;22.40;5.07;;;5.80;99.90;;;;;;4899598;29;20478;-46
2022/01/28 08:38:39;;;;;;;30.67;4.73;;;5.90;99.90;;;;;;4916695;29;20545;-45
2022/01/28 08:41:06;;;;;;;21.03;5.37;;;5.90;99.90;;;;;;4916656;29;20553;-46
2022/01/28 08:43:33;;;;;;;22.30;5.50;;;5.90;99.90;;;;;;4913310;29;20532;-46
2022/01/28 08:46:00;;;;;;;25.23;5.57;;;5.90;99.90;;;;;;4922575;29;20421;-45
2022/01/28 08:48:28;;;;;;;16.33;4.70;;;5.90;99.90;;;;;;4906079;29;20489;-44
2022/01/28 08:50:55;;;;;;;30.93;7.43;;;5.90;99.90;;;;;;4916022;29;20803;-44
2022/01/28 08:53:21;;;;;;;16.03;5.10;;;5.90;99.90;;;;;;4916915;29;20459;-45
2022/01/28 08:55:48;;;;;;;16.13;4.77;;;5.90;99.90;;;;;;4915921;29;20994;-46
2022/01/28 08:58:15;;;;;;;28.33;6.53;;;5.90;99.90;;;;;;4916206;29;20442;-45
2022/01/28 09:00:46;;;;;;;16.97;5.33;;;5.90;99.90;;;;;;4916094;29;20446;-46
2022/01/28 09:03:12;;;;;;;12.93;4.23;;;5.90;99.90;;;;;;4916264;29;20464;-44
2022/01/28 09:05:40;;;;;;;23.67;5.73;;;6.00;99.90;;;;;;4916185;29;20932;-45
2022/01/28 09:08:08;;;;;;;22.40;5.80;;;5.90;99.90;;;;;;4915967;29;20509;-46
2022/01/28 09:10:37;;;;;;;23.40;7.23;;;6.00;99.90;;;;;;4915950;29;20523;-43
2022/01/28 09:13:23;;;;;;;19.53;5.13;;;6.00;99.90;;;;;;4915952;29;20467;-46
2022/01/28 09:15:51;;;;;;;21.30;5.53;;;6.00;99.90;;;;;;4916227;29;20411;-47
2022/01/28 09:18:19;;;;;;;25.33;6.07;;;6.00;99.90;;;;;;4916197;29;20482;-45
2022/01/28 09:20:48;;;;;;;21.40;4.70;;;6.00;99.90;;;;;;4915704;29;20466;-45
2022/01/28 09:23:15;;;;;;;21.90;6.10;;;6.00;99.90;;;;;;4915845;29;20458;-46
2022/01/28 09:25:42;;;;;;;12.37;4.07;;;6.10;99.90;;;;;;4916215;29;20441;-45
2022/01/28 09:28:09;;;;;;;21.17;5.20;;;5.90;99.90;;;;;;4915776;29;20499;-43
2022/01/28 09:30:35;;;;;;;22.33;5.77;;;6.00;99.90;;;;;;4915654;29;20413;-46
2022/01/28 09:33:04;;;;;;;22.13;6.50;;;6.00;99.90;;;;;;4916026;29;20549;-47
2022/01/28 09:35:31;;;;;;;20.63;4.97;;;6.10;99.90;;;;;;4916083;29;20446;-47
2022/01/28 09:37:59;;;;;;;23.80;5.67;;;6.10;99.90;;;;;;4915804;29;20429;-46
2022/01/28 09:40:25;;;;;;;14.23;4.93;;;6.10;99.90;;;;;;4915553;29;20410;-44
2022/01/28 09:42:53;;;;;;;11.10;3.73;;;6.20;99.90;;;;;;4915485;29;20468;-45
2022/01/28 09:45:23;;;;;;;18.17;5.37;;;6.20;99.90;;;;;;4930090;29;20744;-45
2022/01/28 09:47:53;;;;;;;16.07;4.97;;;6.20;99.90;;;;;;4934220;29;20503;-46
2022/01/28 09:50:21;;;;;;;16.70;4.27;;;6.20;99.90;;;;;;4933991;29;20437;-44
2022/01/28 09:52:48;;;;;;;20.90;4.40;;;6.30;99.90;;;;;;4919516;29;20568;-46
2022/01/28 09:55:16;;;;;;;20.20;4.27;;;6.30;99.90;;;;;;4915669;29;20469;-46
2022/01/28 09:57:43;;;;;;;14.60;3.70;;;6.20;99.90;;;;;;4915242;29;20932;-47
2022/01/28 10:00:11;;;;;;;24.40;5.60;;;6.50;99.90;;;;;;4914914;29;20906;-46
2022/01/28 10:02:55;;;;;;;17.10;4.20;;;6.60;99.90;;;;;;4915644;29;20413;-46
2022/01/28 10:05:26;;;;;;;15.80;4.53;;;6.70;99.90;;;;;;4914882;29;20437;-46
2022/01/28 10:08:10;;;;;;;20.50;4.93;;;6.80;99.90;;;;;;4915121;29;20455;-45
2022/01/28 10:10:44;;;;;;;21.13;4.10;;;6.80;99.90;;;;;;4915225;29;20469;-46
2022/01/28 10:13:15;;;;;;;17.10;4.17;;;6.80;99.90;;;;;;4915796;29;20555;-49
2022/01/28 10:15:58;;;;;;;14.60;4.10;;;6.90;99.90;;;;;;4916062;29;20473;-45
2022/01/28 10:18:37;;;;;;;15.43;4.40;;;6.80;99.90;;;;;;5007407;23;20473;-46
2022/01/28 10:21:19;;;;;;;16.97;5.23;;;7.00;99.90;;;;;;4991853;28;20409;-47
2022/01/28 10:24:06;;;;;;;23.73;5.00;;;7.00;99.90;;;;;;4991185;28;21031;-47
2022/01/28 10:26:37;;;;;;;22.10;5.63;;;7.00;99.90;;;;;;4990119;28;20415;-45
2022/01/28 10:29:06;;;;;;;16.13;4.83;;;7.00;99.90;;;;;;4990843;28;20562;-50
2022/01/28 10:31:38;;;;;;;14.43;3.67;;;7.10;99.90;;;;;;4990817;28;20932;-47
2022/01/28 10:34:20;;;;;;;26.40;4.03;;;7.10;99.90;;;;;;4991425;28;20444;-46
2022/01/28 10:36:47;;;;;;;14.37;4.87;;;7.10;99.90;;;;;;4990585;28;20435;-47
2022/01/28 10:39:16;;;;;;;14.90;3.53;;;7.10;99.90;;;;;;4990639;28;20442;-48
2022/01/28 10:41:55;;;;;;;23.37;4.63;;;7.00;99.90;;;;;;4991757;28;20901;-46
2022/01/28 10:44:23;;;;;;;17.97;4.40;;;7.10;99.90;;;;;;4980636;28;20438;-47
2022/01/28 10:46:58;;;;;;;23.60;4.20;;;7.00;99.90;;;;;;4992387;28;20437;-47
2022/01/28 10:49:34;;;;;;;21.93;4.80;;;7.00;99.90;;;;;;4991751;28;20449;-47
2022/01/28 10:52:07;;;;;;;14.43;4.70;;;6.90;99.90;;;;;;4983328;28;20443;-48
2022/01/28 10:54:35;;;;;;;19.90;5.30;;;6.90;99.90;;;;;;4971377;28;20449;-47
2022/01/28 10:57:06;;;;;;;12.50;3.53;;;6.90;99.90;;;;;;4972207;28;20459;-47
2022/01/28 10:59:34;;;;;;;22.33;5.70;;;6.80;99.90;;;;;;4973116;28;20818;-48
2022/01/28 11:02:01;;;;;;;13.27;3.97;;;6.90;99.90;;;;;;4973043;28;20508;-47
2022/01/28 11:04:28;;;;;;;18.17;5.30;;;6.80;99.90;;;;;;4972828;28;20521;-46
2022/01/28 11:06:58;;;;;;;17.80;4.87;;;6.80;99.90;;;;;;4971850;28;20558;-47
2022/01/28 11:09:25;;;;;;;13.80;4.20;;;6.80;99.90;;;;;;4972177;28;20504;-47
2022/01/28 11:11:53;;;;;;;13.97;4.20;;;6.80;99.90;;;;;;4973259;28;20837;-47
2022/01/28 11:14:22;;;;;;;14.77;3.87;;;6.80;99.90;;;;;;4975417;28;20837;-48
2022/01/28 11:16:49;;;;;;;12.63;3.80;;;6.80;99.90;;;;;;4976814;28;20467;-47
2022/01/28 11:19:19;;;;;;;19.87;4.07;;;6.80;99.90;;;;;;4974864;28;20411;-49
2022/01/28 11:22:05;;;;;;;16.70;4.70;;;6.80;99.90;;;;;;4975250;28;20531;-49
2022/01/28 11:24:49;;;;;;;17.13;3.93;;;6.90;99.90;;;;;;4976231;28;20822;-47
2022/01/28 11:27:22;;;;;;;24.13;4.20;;;7.00;99.90;;;;;;4985561;28;21049;-46
2022/01/28 11:29:50;;;;;;;13.70;3.80;;;7.10;99.90;;;;;;4994868;28;20454;-47
2022/01/28 11:32:18;;;;;;;12.97;3.93;;;7.20;99.90;;;;;;4994633;28;20439;-47
2022/01/28 11:34:58;;;;;;;13.50;3.17;;;7.20;99.90;;;;;;4995389;28;20417;-46
2022/01/28 11:37:27;;;;;;;20.33;4.07;;;7.30;99.90;;;;;;4994471;28;20454;-46
2022/01/28 11:39:54;;;;;;;19.63;5.10;;;7.30;99.90;;;;;;4994064;28;20458;-48
2022/01/28 11:42:27;;;;;;;9.80;4.50;;;7.40;99.90;;;;;;4994956;28;20514;-48
2022/01/28 11:44:57;;;;;;;15.23;3.53;;;7.50;99.90;;;;;;4983076;28;20815;-47
2022/01/28 11:47:26;;;;;;;17.43;4.67;;;7.50;99.90;;;;;;4995137;28;20467;-47
2022/01/28 11:49:58;;;;;;;13.13;3.97;;;7.50;99.90;;;;;;4993813;28;20502;-46
2022/01/28 11:52:29;;;;;;;19.00;3.63;;;7.50;99.80;;;;;;4981275;28;20894;-47
2022/01/28 11:54:56;;;;;;;10.07;3.67;;;7.70;99.80;;;;;;4975961;28;20449;-48
2022/01/28 11:57:26;;;;;;;21.20;3.97;;;7.70;99.70;;;;;;4976190;28;20476;-47
2022/01/28 12:00:21;;;;;;;14.00;4.43;;;7.70;99.70;;;;;;4976064;28;20463;-47
2022/01/28 12:02:49;;;;;;;18.80;3.83;;;7.80;99.50;;;;;;4974827;28;20514;-47
2022/01/28 12:05:26;;;;;;;21.47;3.60;;;7.80;99.60;;;;;;4974615;28;20405;-47
2022/01/28 12:07:54;;;;;;;17.63;4.53;;;7.80;99.50;;;;;;4974525;28;20489;-47
2022/01/28 12:10:21;;;;;;;9.80;3.50;;;7.80;99.50;;;;;;4973171;28;20445;-47
2022/01/28 12:12:58;;;;;;;12.93;4.23;;;7.80;99.30;;;;;;4973016;28;20439;-47
2022/01/28 12:15:29;;;;;;;11.13;4.13;;;7.70;99.20;;;;;;4972906;28;20428;-46
2022/01/28 12:18:11;;;;;;;13.60;3.57;;;7.80;99.20;;;;;;4972863;28;20990;-47
2022/01/28 12:20:47;;;;;;;16.57;3.40;;;7.80;99.20;;;;;;4973493;28;20437;-50
2022/01/28 12:23:38;;;;;;;18.03;4.50;;;7.80;99.10;;;;;;4973594;28;20809;-48
2022/01/28 12:26:05;;;;;;;21.33;4.53;;;7.90;99.20;;;;;;4972675;28;20439;-47
2022/01/28 12:29:00;;;;;;;12.73;3.47;;;7.90;98.90;;;;;;4974715;28;20850;-47
2022/01/28 12:31:32;;;;;;;12.90;4.43;;;8.00;99.00;;;;;;4993130;28;20435;-46
2022/01/28 12:34:01;;;;;;;11.13;3.03;;;8.10;99.20;;;;;;4992673;28;21139;-46
2022/01/28 12:36:31;;;;;;;15.43;3.67;;;8.00;98.90;;;;;;4993369;28;20501;-47
2022/01/28 12:39:09;;;;;;;12.23;3.33;;;8.00;98.90;;;;;;4994425;28;20427;-47
2022/01/28 12:41:49;;;;;;;12.77;3.50;;;8.00;98.90;;;;;;4994056;28;20441;-47
2022/01/28 12:44:16;;;;;;;9.67;2.73;;;7.90;98.80;;;;;;4983872;28;21911;-47
2022/01/28 12:46:52;;;;;;;16.33;3.70;;;7.90;99.00;;;;;;4995169;28;20431;-48
2022/01/28 12:49:24;;;;;;;10.13;4.27;;;7.90;99.00;;;;;;4994308;28;20454;-45
2022/01/28 12:51:55;;;;;;;11.70;3.10;;;8.00;99.10;;;;;;4986728;28;20421;-47
2022/01/28 12:54:39;;;;;;;15.90;3.70;;;7.90;99.00;;;;;;4974695;28;20438;-48
2022/01/28 12:57:07;;;;;;;12.10;3.70;;;8.00;99.20;;;;;;4974457;28;20472;-47
2022/01/28 12:59:34;;;;;;;7.93;3.17;;;7.90;99.10;;;;;;4972837;28;20531;-47
2022/01/28 13:02:02;;;;;;;10.73;2.97;;;7.90;99.30;;;;;;4973112;28;20430;-47
2022/01/28 13:04:51;;;;;;;20.13;8.67;;;7.80;99.10;;;;;;4973231;28;20431;-46
2022/01/28 13:10:03;;;;;;;9.53;3.00;;;7.80;99.80;;;;;;4976388;28;20500;-47
2022/01/28 13:12:31;;;;;;;8.47;2.87;;;7.80;99.50;;;;;;4972626;28;20468;-46
2022/01/28 13:15:05;;;;;;;12.50;3.10;;;7.80;99.70;;;;;;4973069;28;20457;-48
2022/01/28 13:17:33;;;;;;;7.03;2.30;;;7.70;99.70;;;;;;4972421;28;20476;-47
2022/01/28 13:20:03;;;;;;;18.57;3.50;;;7.70;99.70;;;;;;4971717;28;20531;-47
2022/01/28 13:22:32;;;;;;;8.20;2.70;;;7.60;99.60;;;;;;4972591;28;20447;-46
2022/01/28 13:25:00;;;;;;;15.93;3.70;;;7.60;99.60;;;;;;4972992;28;20441;-46
2022/01/28 13:27:39;;;;;;;14.47;3.27;;;7.50;99.80;;;;;;4984113;28;20464;-48
2022/01/28 13:30:13;;;;;;;13.50;5.37;;;7.50;99.80;;;;;;4992277;28;20476;-47
2022/01/28 13:32:43;;;;;;;10.23;3.00;;;7.50;99.90;;;;;;4992589;28;20926;-47
2022/01/28 13:35:14;;;;;;;12.40;3.83;;;7.50;99.80;;;;;;4992092;28;20553;-47
2022/01/28 13:37:43;;;;;;;10.70;2.70;;;7.50;99.80;;;;;;4992400;28;20595;-47
2022/01/28 13:40:12;;;;;;;12.93;2.90;;;7.40;99.90;;;;;;4991243;28;20404;-47
2022/01/28 13:42:55;;;;;;;8.33;2.70;;;7.40;99.80;;;;;;4984392;28;20856;-48
2022/01/28 13:45:29;;;;;;;10.70;2.83;;;7.40;99.90;;;;;;4984437;28;20528;-46
2022/01/28 13:47:57;;;;;;;14.70;3.73;;;7.40;99.90;;;;;;4991691;28;20457;-47
2022/01/28 13:50:26;;;;;;;13.57;3.60;;;7.30;99.90;;;;;;4991152;28;21036;-47